sensor_id;sensor_type;location;lat;lon;timestamp;P1;durP1;ratioP1;P2;durP2;ratioP2
49061;SDS011;34873;49.142;9.118;2023-11-21T00:00:32;2.22;;;0.40;;
49061;SDS011;34873;49.142;9.118;2023-11-21T00:03:00;1.45;;;0.28;;
49061;SDS011;34873;49.142;9.118;2023-11-21T00:05:26;3.72;;;0.52;;
49061;SDS011;34873;49.142;9.118;2023-11-21T00:07:51;0.77;;;0.25;;
49061;SDS011;34873;49.142;9.118;2023-11-21T00:10:17;1.92;;;0.20;;
49061;SDS011;34873;49.142;9.118;2023-11-21T00:12:44;1.45;;;0.25;;
49061;SDS011;34873;49.142;9.118;2023-11-21T00:15:13;1.88;;;0.30;;
49061;SDS011;34873;49.142;9.118;2023-11-21T00:17:38;1.30;;;0.38;;
49061;SDS011;34873;49.142;9.118;2023-11-21T00:20:07;0.73;;;0.20;;
49061;SDS011;34873;49.142;9.118;2023-11-21T00:22:34;1.45;;;0.50;;
49061;SDS011;34873;49.142;9.118;2023-11-21T00:25:00;0.50;;;0.20;;
49061;SDS011;34873;49.142;9.118;2023-11-21T00:27:28;1.40;;;0.30;;
49061;SDS011;34873;49.142;9.118;2023-11-21T00:29:55;3.03;;;0.63;;
49061;SDS011;34873;49.142;9.118;2023-11-21T00:32:21;0.35;;;0.20;;
49061;SDS011;34873;49.142;9.118;2023-11-21T00:34:46;3.72;;;0.40;;
49061;SDS011;34873;49.142;9.118;2023-11-21T00:37:12;2.58;;;0.30;;
49061;SDS011;34873;49.142;9.118;2023-11-21T00:39:37;1.60;;;0.63;;
49061;SDS011;34873;49.142;9.118;2023-11-21T00:42:03;1.40;;;0.40;;
49061;SDS011;34873;49.142;9.118;2023-11-21T00:44:30;1.10;;;0.10;;
49061;SDS011;34873;49.142;9.118;2023-11-21T00:46:55;2.60;;;0.50;;
49061;SDS011;34873;49.142;9.118;2023-11-21T00:49:21;2.15;;;0.38;;
49061;SDS011;34873;49.142;9.118;2023-11-21T00:51:48;1.38;;;0.40;;
49061;SDS011;34873;49.142;9.118;2023-11-21T00:54:14;1.52;;;0.40;;
49061;SDS011;34873;49.142;9.118;2023-11-21T00:56:42;3.65;;;0.50;;
49061;SDS011;34873;49.142;9.118;2023-11-21T00:59:12;0.32;;;0.20;;
49061;SDS011;34873;49.142;9.118;2023-11-21T01:01:40;3.35;;;0.82;;
49061;SDS011;34873;49.142;9.118;2023-11-21T01:04:08;2.17;;;0.32;;
49061;SDS011;34873;49.142;9.118;2023-11-21T01:06:36;3.35;;;0.52;;
49061;SDS011;34873;49.142;9.118;2023-11-21T01:09:01;0.75;;;0.13;;
49061;SDS011;34873;49.142;9.118;2023-11-21T01:11:29;1.27;;;0.40;;
49061;SDS011;34873;49.142;9.118;2023-11-21T01:13:54;2.65;;;0.52;;
49061;SDS011;34873;49.142;9.118;2023-11-21T01:16:20;1.52;;;0.32;;
49061;SDS011;34873;49.142;9.118;2023-11-21T01:18:45;3.78;;;0.32;;
49061;SDS011;34873;49.142;9.118;2023-11-21T01:21:13;1.92;;;0.45;;
49061;SDS011;34873;49.142;9.118;2023-11-21T01:23:41;1.70;;;0.50;;
49061;SDS011;34873;49.142;9.118;2023-11-21T01:26:06;1.80;;;0.60;;
49061;SDS011;34873;49.142;9.118;2023-11-21T01:28:38;6.63;;;0.75;;
49061;SDS011;34873;49.142;9.118;2023-11-21T01:31:03;0.43;;;0.22;;
49061;SDS011;34873;49.142;9.118;2023-11-21T01:33:32;3.85;;;0.22;;
49061;SDS011;34873;49.142;9.118;2023-11-21T01:35:59;2.15;;;0.60;;
49061;SDS011;34873;49.142;9.118;2023-11-21T01:38:27;0.68;;;0.20;;
49061;SDS011;34873;49.142;9.118;2023-11-21T01:40:53;2.65;;;0.30;;
49061;SDS011;34873;49.142;9.118;2023-11-21T01:43:18;1.80;;;0.38;;
49061;SDS011;34873;49.142;9.118;2023-11-21T01:45:44;4.18;;;0.32;;
49061;SDS011;34873;49.142;9.118;2023-11-21T01:48:10;1.75;;;0.30;;
49061;SDS011;34873;49.142;9.118;2023-11-21T01:50:35;0.32;;;0.25;;
49061;SDS011;34873;49.142;9.118;2023-11-21T01:53:01;3.28;;;0.38;;
49061;SDS011;34873;49.142;9.118;2023-11-21T01:55:26;2.67;;;0.40;;
49061;SDS011;34873;49.142;9.118;2023-11-21T01:57:53;6.03;;;0.32;;
49061;SDS011;34873;49.142;9.118;2023-11-21T02:00:23;1.40;;;0.32;;
49061;SDS011;34873;49.142;9.118;2023-11-21T02:02:49;1.35;;;0.57;;
49061;SDS011;34873;49.142;9.118;2023-11-21T02:05:18;2.10;;;0.40;;
49061;SDS011;34873;49.142;9.118;2023-11-21T02:07:44;2.33;;;0.80;;
49061;SDS011;34873;49.142;9.118;2023-11-21T02:10:13;1.23;;;0.20;;
49061;SDS011;34873;49.142;9.118;2023-11-21T02:12:43;1.38;;;0.40;;
49061;SDS011;34873;49.142;9.118;2023-11-21T02:15:12;2.67;;;0.90;;
49061;SDS011;34873;49.142;9.118;2023-11-21T02:17:45;5.82;;;0.60;;
49061;SDS011;34873;49.142;9.118;2023-11-21T02:20:11;2.75;;;0.65;;
49061;SDS011;34873;49.142;9.118;2023-11-21T02:22:43;5.05;;;0.88;;
49061;SDS011;34873;49.142;9.118;2023-11-21T02:25:09;4.50;;;0.70;;
49061;SDS011;34873;49.142;9.118;2023-11-21T02:27:34;4.32;;;1.13;;
49061;SDS011;34873;49.142;9.118;2023-11-21T02:30:00;3.80;;;0.45;;
49061;SDS011;34873;49.142;9.118;2023-11-21T02:32:29;11.68;;;0.60;;
49061;SDS011;34873;49.142;9.118;2023-11-21T02:34:57;4.70;;;0.90;;
49061;SDS011;34873;49.142;9.118;2023-11-21T02:37:26;1.65;;;0.43;;
49061;SDS011;34873;49.142;9.118;2023-11-21T02:39:51;6.43;;;0.80;;
49061;SDS011;34873;49.142;9.118;2023-11-21T02:42:17;6.70;;;0.70;;
49061;SDS011;34873;49.142;9.118;2023-11-21T02:44:43;2.35;;;0.32;;
49061;SDS011;34873;49.142;9.118;2023-11-21T02:47:09;2.55;;;0.85;;
49061;SDS011;34873;49.142;9.118;2023-11-21T02:49:34;5.93;;;0.77;;
49061;SDS011;34873;49.142;9.118;2023-11-21T02:52:01;7.20;;;0.77;;
49061;SDS011;34873;49.142;9.118;2023-11-21T02:54:29;2.40;;;0.45;;
49061;SDS011;34873;49.142;9.118;2023-11-21T02:57:01;6.20;;;0.60;;
49061;SDS011;34873;49.142;9.118;2023-11-21T02:59:28;2.55;;;0.55;;
49061;SDS011;34873;49.142;9.118;2023-11-21T03:01:54;4.13;;;0.77;;
49061;SDS011;34873;49.142;9.118;2023-11-21T03:04:19;2.35;;;0.45;;
49061;SDS011;34873;49.142;9.118;2023-11-21T03:06:46;7.53;;;1.15;;
49061;SDS011;34873;49.142;9.118;2023-11-21T03:09:11;5.68;;;0.63;;
49061;SDS011;34873;49.142;9.118;2023-11-21T03:11:39;2.70;;;0.73;;
49061;SDS011;34873;49.142;9.118;2023-11-21T03:14:07;1.23;;;0.40;;
49061;SDS011;34873;49.142;9.118;2023-11-21T03:16:32;1.85;;;0.50;;
49061;SDS011;34873;49.142;9.118;2023-11-21T03:18:58;3.75;;;0.95;;
49061;SDS011;34873;49.142;9.118;2023-11-21T03:21:28;2.33;;;0.65;;
49061;SDS011;34873;49.142;9.118;2023-11-21T03:23:56;2.75;;;0.50;;
49061;SDS011;34873;49.142;9.118;2023-11-21T03:26:29;10.57;;;1.08;;
49061;SDS011;34873;49.142;9.118;2023-11-21T03:28:55;0.82;;;0.63;;
49061;SDS011;34873;49.142;9.118;2023-11-21T03:31:21;13.05;;;1.55;;
49061;SDS011;34873;49.142;9.118;2023-11-21T03:33:47;2.90;;;0.50;;
49061;SDS011;34873;49.142;9.118;2023-11-21T03:36:12;1.77;;;0.52;;
49061;SDS011;34873;49.142;9.118;2023-11-21T03:38:39;0.65;;;0.30;;
49061;SDS011;34873;49.142;9.118;2023-11-21T03:41:05;2.25;;;0.60;;
49061;SDS011;34873;49.142;9.118;2023-11-21T03:43:31;3.03;;;0.73;;
49061;SDS011;34873;49.142;9.118;2023-11-21T03:45:56;1.35;;;0.32;;
49061;SDS011;34873;49.142;9.118;2023-11-21T03:48:24;1.90;;;0.68;;
49061;SDS011;34873;49.142;9.118;2023-11-21T03:50:51;2.03;;;0.60;;
49061;SDS011;34873;49.142;9.118;2023-11-21T03:53:19;2.58;;;0.60;;
49061;SDS011;34873;49.142;9.118;2023-11-21T03:55:47;2.53;;;0.60;;
49061;SDS011;34873;49.142;9.118;2023-11-21T03:58:12;2.63;;;0.70;;
49061;SDS011;34873;49.142;9.118;2023-11-21T04:00:40;2.95;;;0.90;;
49061;SDS011;34873;49.142;9.118;2023-11-21T04:03:09;6.10;;;0.90;;
49061;SDS011;34873;49.142;9.118;2023-11-21T04:05:34;4.50;;;0.75;;
49061;SDS011;34873;49.142;9.118;2023-11-21T04:07:59;3.17;;;0.60;;
49061;SDS011;34873;49.142;9.118;2023-11-21T04:10:25;4.32;;;0.50;;
49061;SDS011;34873;49.142;9.118;2023-11-21T04:12:50;2.88;;;0.60;;
49061;SDS011;34873;49.142;9.118;2023-11-21T04:15:16;2.50;;;0.65;;
49061;SDS011;34873;49.142;9.118;2023-11-21T04:17:42;3.97;;;0.50;;
49061;SDS011;34873;49.142;9.118;2023-11-21T04:20:08;4.72;;;1.55;;
49061;SDS011;34873;49.142;9.118;2023-11-21T04:22:38;2.33;;;0.70;;
49061;SDS011;34873;49.142;9.118;2023-11-21T04:25:07;6.93;;;1.10;;
49061;SDS011;34873;49.142;9.118;2023-11-21T04:27:39;2.55;;;0.52;;
49061;SDS011;34873;49.142;9.118;2023-11-21T04:30:05;4.65;;;0.65;;
49061;SDS011;34873;49.142;9.118;2023-11-21T04:32:33;3.38;;;0.50;;
49061;SDS011;34873;49.142;9.118;2023-11-21T04:34:58;2.33;;;0.38;;
49061;SDS011;34873;49.142;9.118;2023-11-21T04:37:24;2.95;;;0.43;;
49061;SDS011;34873;49.142;9.118;2023-11-21T04:39:49;4.75;;;0.77;;
49061;SDS011;34873;49.142;9.118;2023-11-21T04:42:15;3.88;;;0.70;;
49061;SDS011;34873;49.142;9.118;2023-11-21T04:44:40;2.42;;;0.60;;
49061;SDS011;34873;49.142;9.118;2023-11-21T04:47:06;1.42;;;0.30;;
49061;SDS011;34873;49.142;9.118;2023-11-21T04:49:34;2.92;;;1.05;;
49061;SDS011;34873;49.142;9.118;2023-11-21T04:52:04;3.35;;;0.63;;
49061;SDS011;34873;49.142;9.118;2023-11-21T04:54:30;2.25;;;0.52;;
49061;SDS011;34873;49.142;9.118;2023-11-21T04:56:56;2.40;;;0.90;;
49061;SDS011;34873;49.142;9.118;2023-11-21T04:59:22;1.33;;;0.50;;
49061;SDS011;34873;49.142;9.118;2023-11-21T05:01:50;2.33;;;0.40;;
49061;SDS011;34873;49.142;9.118;2023-11-21T05:04:18;1.67;;;0.57;;
49061;SDS011;34873;49.142;9.118;2023-11-21T05:06:47;0.82;;;0.40;;
49061;SDS011;34873;49.142;9.118;2023-11-21T05:09:13;4.22;;;0.77;;
49061;SDS011;34873;49.142;9.118;2023-11-21T05:11:38;4.65;;;0.68;;
49061;SDS011;34873;49.142;9.118;2023-11-21T05:14:05;4.65;;;0.80;;
49061;SDS011;34873;49.142;9.118;2023-11-21T05:16:31;2.47;;;0.47;;
49061;SDS011;34873;49.142;9.118;2023-11-21T05:18:57;2.33;;;0.45;;
49061;SDS011;34873;49.142;9.118;2023-11-21T05:21:28;3.72;;;0.52;;
49061;SDS011;34873;49.142;9.118;2023-11-21T05:23:57;1.15;;;0.50;;
49061;SDS011;34873;49.142;9.118;2023-11-21T05:26:22;4.63;;;0.60;;
49061;SDS011;34873;49.142;9.118;2023-11-21T05:28:48;0.75;;;0.40;;
49061;SDS011;34873;49.142;9.118;2023-11-21T05:31:16;3.38;;;0.88;;
49061;SDS011;34873;49.142;9.118;2023-11-21T05:33:44;2.80;;;0.50;;
49061;SDS011;34873;49.142;9.118;2023-11-21T05:36:12;3.25;;;0.75;;
49061;SDS011;34873;49.142;9.118;2023-11-21T05:38:40;1.58;;;0.40;;
49061;SDS011;34873;49.142;9.118;2023-11-21T05:41:06;0.75;;;0.30;;
49061;SDS011;34873;49.142;9.118;2023-11-21T05:43:33;2.25;;;0.50;;
49061;SDS011;34873;49.142;9.118;2023-11-21T05:46:00;1.08;;;0.40;;
49061;SDS011;34873;49.142;9.118;2023-11-21T05:48:26;1.42;;;0.77;;
49061;SDS011;34873;49.142;9.118;2023-11-21T05:50:52;2.88;;;0.60;;
49061;SDS011;34873;49.142;9.118;2023-11-21T05:53:17;2.53;;;0.70;;
49061;SDS011;34873;49.142;9.118;2023-11-21T05:55:43;1.00;;;0.43;;
49061;SDS011;34873;49.142;9.118;2023-11-21T05:58:08;2.28;;;0.57;;
49061;SDS011;34873;49.142;9.118;2023-11-21T06:00:36;2.42;;;0.82;;
49061;SDS011;34873;49.142;9.118;2023-11-21T06:03:02;1.58;;;0.38;;
49061;SDS011;34873;49.142;9.118;2023-11-21T06:05:28;2.55;;;0.40;;
49061;SDS011;34873;49.142;9.118;2023-11-21T06:07:54;1.20;;;0.57;;
49061;SDS011;34873;49.142;9.118;2023-11-21T06:10:22;2.00;;;0.82;;
49061;SDS011;34873;49.142;9.118;2023-11-21T06:12:48;3.60;;;0.90;;
49061;SDS011;34873;49.142;9.118;2023-11-21T06:15:14;4.15;;;0.82;;
49061;SDS011;34873;49.142;9.118;2023-11-21T06:17:40;1.75;;;0.65;;
49061;SDS011;34873;49.142;9.118;2023-11-21T06:20:06;4.93;;;0.60;;
49061;SDS011;34873;49.142;9.118;2023-11-21T06:22:40;1.88;;;0.82;;
49061;SDS011;34873;49.142;9.118;2023-11-21T06:25:11;4.85;;;0.75;;
49061;SDS011;34873;49.142;9.118;2023-11-21T06:27:41;1.80;;;0.40;;
49061;SDS011;34873;49.142;9.118;2023-11-21T06:30:09;9.85;;;0.90;;
49061;SDS011;34873;49.142;9.118;2023-11-21T06:32:36;2.25;;;0.40;;
49061;SDS011;34873;49.142;9.118;2023-11-21T06:35:03;2.65;;;0.80;;
49061;SDS011;34873;49.142;9.118;2023-11-21T06:37:29;4.22;;;0.60;;
49061;SDS011;34873;49.142;9.118;2023-11-21T06:39:54;3.35;;;0.47;;
49061;SDS011;34873;49.142;9.118;2023-11-21T06:42:21;2.33;;;0.85;;
49061;SDS011;34873;49.142;9.118;2023-11-21T06:44:47;2.55;;;0.77;;
49061;SDS011;34873;49.142;9.118;2023-11-21T06:47:13;4.57;;;0.70;;
49061;SDS011;34873;49.142;9.118;2023-11-21T06:49:39;1.77;;;0.88;;
49061;SDS011;34873;49.142;9.118;2023-11-21T06:52:08;3.95;;;2.00;;
49061;SDS011;34873;49.142;9.118;2023-11-21T06:54:38;1.08;;;0.60;;
49061;SDS011;34873;49.142;9.118;2023-11-21T06:57:04;3.20;;;0.70;;
49061;SDS011;34873;49.142;9.118;2023-11-21T06:59:29;1.17;;;0.70;;
49061;SDS011;34873;49.142;9.118;2023-11-21T07:01:54;1.70;;;0.57;;
49061;SDS011;34873;49.142;9.118;2023-11-21T07:04:20;1.80;;;0.70;;
49061;SDS011;34873;49.142;9.118;2023-11-21T07:06:45;7.30;;;2.03;;
49061;SDS011;34873;49.142;9.118;2023-11-21T07:09:11;1.92;;;0.60;;
49061;SDS011;34873;49.142;9.118;2023-11-21T07:11:37;2.42;;;0.70;;
49061;SDS011;34873;49.142;9.118;2023-11-21T07:14:03;2.63;;;0.60;;
49061;SDS011;34873;49.142;9.118;2023-11-21T07:16:35;4.18;;;0.82;;
49061;SDS011;34873;49.142;9.118;2023-11-21T07:19:06;3.58;;;1.15;;
49061;SDS011;34873;49.142;9.118;2023-11-21T07:21:32;2.75;;;0.60;;
49061;SDS011;34873;49.142;9.118;2023-11-21T07:24:04;1.58;;;0.65;;
49061;SDS011;34873;49.142;9.118;2023-11-21T07:26:31;2.72;;;0.65;;
49061;SDS011;34873;49.142;9.118;2023-11-21T07:28:57;4.93;;;0.88;;
49061;SDS011;34873;49.142;9.118;2023-11-21T07:31:22;1.67;;;0.90;;
49061;SDS011;34873;49.142;9.118;2023-11-21T07:33:49;4.15;;;1.00;;
49061;SDS011;34873;49.142;9.118;2023-11-21T07:36:15;1.58;;;0.70;;
49061;SDS011;34873;49.142;9.118;2023-11-21T07:38:41;2.55;;;0.80;;
49061;SDS011;34873;49.142;9.118;2023-11-21T07:41:09;1.17;;;0.70;;
49061;SDS011;34873;49.142;9.118;2023-11-21T07:43:43;3.28;;;0.98;;
49061;SDS011;34873;49.142;9.118;2023-11-21T07:46:09;3.17;;;1.02;;
49061;SDS011;34873;49.142;9.118;2023-11-21T07:48:41;1.35;;;0.70;;
49061;SDS011;34873;49.142;9.118;2023-11-21T07:51:07;6.03;;;1.02;;
49061;SDS011;34873;49.142;9.118;2023-11-21T07:53:33;1.60;;;0.80;;
49061;SDS011;34873;49.142;9.118;2023-11-21T07:56:08;5.03;;;0.98;;
49061;SDS011;34873;49.142;9.118;2023-11-21T07:58:34;1.17;;;0.80;;
49061;SDS011;34873;49.142;9.118;2023-11-21T08:01:01;2.85;;;0.90;;
49061;SDS011;34873;49.142;9.118;2023-11-21T08:03:27;2.25;;;1.42;;
49061;SDS011;34873;49.142;9.118;2023-11-21T08:05:55;1.10;;;1.00;;
49061;SDS011;34873;49.142;9.118;2023-11-21T08:08:22;5.60;;;1.02;;
49061;SDS011;34873;49.142;9.118;2023-11-21T08:10:49;3.22;;;1.00;;
49061;SDS011;34873;49.142;9.118;2023-11-21T08:15:49;3.40;;;1.13;;
49061;SDS011;34873;49.142;9.118;2023-11-21T08:18:15;1.85;;;0.85;;
49061;SDS011;34873;49.142;9.118;2023-11-21T08:20:42;3.97;;;1.60;;
49061;SDS011;34873;49.142;9.118;2023-11-21T08:23:09;7.63;;;5.30;;
49061;SDS011;34873;49.142;9.118;2023-11-21T08:25:37;9.50;;;5.90;;
49061;SDS011;34873;49.142;9.118;2023-11-21T08:28:02;6.03;;;4.30;;
49061;SDS011;34873;49.142;9.118;2023-11-21T08:30:31;7.68;;;5.32;;
49061;SDS011;34873;49.142;9.118;2023-11-21T08:32:57;7.88;;;4.60;;
49061;SDS011;34873;49.142;9.118;2023-11-21T08:35:23;4.13;;;3.60;;
49061;SDS011;34873;49.142;9.118;2023-11-21T08:37:56;5.50;;;3.70;;
49061;SDS011;34873;49.142;9.118;2023-11-21T08:40:24;4.70;;;3.50;;
49061;SDS011;34873;49.142;9.118;2023-11-21T08:42:50;4.95;;;3.17;;
49061;SDS011;34873;49.142;9.118;2023-11-21T08:45:18;8.57;;;3.33;;
49061;SDS011;34873;49.142;9.118;2023-11-21T08:47:47;5.68;;;3.17;;
49061;SDS011;34873;49.142;9.118;2023-11-21T08:50:13;3.60;;;2.53;;
49061;SDS011;34873;49.142;9.118;2023-11-21T08:52:40;2.65;;;2.25;;
49061;SDS011;34873;49.142;9.118;2023-11-21T08:55:09;3.28;;;2.67;;
49061;SDS011;34873;49.142;9.118;2023-11-21T08:57:38;4.35;;;2.35;;
49061;SDS011;34873;49.142;9.118;2023-11-21T09:00:06;2.50;;;2.30;;
49061;SDS011;34873;49.142;9.118;2023-11-21T09:02:39;2.20;;;2.00;;
49061;SDS011;34873;49.142;9.118;2023-11-21T09:05:08;2.28;;;2.08;;
49061;SDS011;34873;49.142;9.118;2023-11-21T09:07:41;2.30;;;2.10;;
49061;SDS011;34873;49.142;9.118;2023-11-21T09:10:11;5.63;;;2.10;;
49061;SDS011;34873;49.142;9.118;2023-11-21T09:12:40;2.28;;;1.92;;
49061;SDS011;34873;49.142;9.118;2023-11-21T09:15:10;2.58;;;1.75;;
49061;SDS011;34873;49.142;9.118;2023-11-21T09:17:36;1.70;;;1.60;;
49061;SDS011;34873;49.142;9.118;2023-11-21T09:20:02;4.07;;;1.95;;
49061;SDS011;34873;49.142;9.118;2023-11-21T09:22:33;1.50;;;1.40;;
49061;SDS011;34873;49.142;9.118;2023-11-21T09:24:58;1.70;;;1.60;;
49061;SDS011;34873;49.142;9.118;2023-11-21T09:27:24;1.40;;;1.30;;
49061;SDS011;34873;49.142;9.118;2023-11-21T09:29:53;1.70;;;1.60;;
49061;SDS011;34873;49.142;9.118;2023-11-21T09:32:18;2.63;;;1.35;;
49061;SDS011;34873;49.142;9.118;2023-11-21T09:34:46;1.73;;;1.20;;
49061;SDS011;34873;49.142;9.118;2023-11-21T09:37:12;1.05;;;1.05;;
49061;SDS011;34873;49.142;9.118;2023-11-21T09:39:38;1.35;;;1.25;;
49061;SDS011;34873;49.142;9.118;2023-11-21T09:42:08;1.52;;;1.30;;
49061;SDS011;34873;49.142;9.118;2023-11-21T09:44:41;1.00;;;1.00;;
49061;SDS011;34873;49.142;9.118;2023-11-21T09:47:30;0.80;;;0.80;;
49061;SDS011;34873;49.142;9.118;2023-11-21T09:49:56;1.05;;;1.05;;
49061;SDS011;34873;49.142;9.118;2023-11-21T09:52:23;1.05;;;1.05;;
49061;SDS011;34873;49.142;9.118;2023-11-21T09:54:52;0.90;;;0.90;;
49061;SDS011;34873;49.142;9.118;2023-11-21T09:57:21;0.82;;;0.80;;
49061;SDS011;34873;49.142;9.118;2023-11-21T09:59:51;0.90;;;0.90;;
49061;SDS011;34873;49.142;9.118;2023-11-21T10:02:27;0.82;;;0.82;;
49061;SDS011;34873;49.142;9.118;2023-11-21T10:04:58;0.80;;;0.80;;
49061;SDS011;34873;49.142;9.118;2023-11-21T10:07:25;0.80;;;0.80;;
49061;SDS011;34873;49.142;9.118;2023-11-21T10:09:51;0.70;;;0.70;;
49061;SDS011;34873;49.142;9.118;2023-11-21T10:12:20;0.70;;;0.70;;
49061;SDS011;34873;49.142;9.118;2023-11-21T10:14:48;1.15;;;0.75;;
49061;SDS011;34873;49.142;9.118;2023-11-21T10:17:14;0.93;;;0.75;;
49061;SDS011;34873;49.142;9.118;2023-11-21T10:19:41;2.67;;;0.65;;
49061;SDS011;34873;49.142;9.118;2023-11-21T10:22:15;0.93;;;0.60;;
49061;SDS011;34873;49.142;9.118;2023-11-21T10:24:43;4.18;;;0.73;;
49061;SDS011;34873;49.142;9.118;2023-11-21T10:27:11;0.57;;;0.57;;
49061;SDS011;34873;49.142;9.118;2023-11-21T10:29:39;0.98;;;0.85;;
49061;SDS011;34873;49.142;9.118;2023-11-21T10:32:04;3.10;;;0.80;;
49061;SDS011;34873;49.142;9.118;2023-11-21T10:34:30;2.05;;;0.60;;
49061;SDS011;34873;49.142;9.118;2023-11-21T10:36:58;0.52;;;0.52;;
49061;SDS011;34873;49.142;9.118;2023-11-21T10:39:35;1.65;;;0.70;;
49061;SDS011;34873;49.142;9.118;2023-11-21T10:42:01;0.73;;;0.70;;
49061;SDS011;34873;49.142;9.118;2023-11-21T10:44:27;0.80;;;0.77;;
49061;SDS011;34873;49.142;9.118;2023-11-21T10:46:53;0.90;;;0.90;;
49061;SDS011;34873;49.142;9.118;2023-11-21T10:49:25;0.82;;;0.63;;
49061;SDS011;34873;49.142;9.118;2023-11-21T10:51:55;0.85;;;0.75;;
49061;SDS011;34873;49.142;9.118;2023-11-21T10:54:24;3.33;;;0.80;;
49061;SDS011;34873;49.142;9.118;2023-11-21T10:56:56;5.18;;;0.85;;
49061;SDS011;34873;49.142;9.118;2023-11-21T10:59:22;1.45;;;0.80;;
49061;SDS011;34873;49.142;9.118;2023-11-21T11:01:50;1.02;;;1.00;;
49061;SDS011;34873;49.142;9.118;2023-11-21T11:04:19;1.80;;;1.15;;
49061;SDS011;34873;49.142;9.118;2023-11-21T11:07:02;1.10;;;0.90;;
49061;SDS011;34873;49.142;9.118;2023-11-21T11:09:28;2.47;;;0.95;;
49061;SDS011;34873;49.142;9.118;2023-11-21T11:11:55;2.92;;;0.80;;
49061;SDS011;34873;49.142;9.118;2023-11-21T11:14:21;2.78;;;0.80;;
49061;SDS011;34873;49.142;9.118;2023-11-21T11:16:52;1.15;;;1.05;;
49061;SDS011;34873;49.142;9.118;2023-11-21T11:19:21;1.17;;;1.08;;
49061;SDS011;34873;49.142;9.118;2023-11-21T11:27:22;1.17;;;1.08;;
49061;SDS011;34873;49.142;9.118;2023-11-21T11:29:55;1.30;;;1.20;;
49061;SDS011;34873;49.142;9.118;2023-11-21T11:37:47;2.45;;;1.20;;
49061;SDS011;34873;49.142;9.118;2023-11-21T11:40:15;1.48;;;1.35;;
49061;SDS011;34873;49.142;9.118;2023-11-21T11:42:55;2.15;;;1.45;;
49061;SDS011;34873;49.142;9.118;2023-11-21T11:45:23;2.38;;;1.15;;
49061;SDS011;34873;49.142;9.118;2023-11-21T11:47:57;1.17;;;1.02;;
49061;SDS011;34873;49.142;9.118;2023-11-21T11:50:22;1.98;;;1.42;;
49061;SDS011;34873;49.142;9.118;2023-11-21T11:52:50;2.00;;;1.10;;
49061;SDS011;34873;49.142;9.118;2023-11-21T11:55:18;3.70;;;1.50;;
49061;SDS011;34873;49.142;9.118;2023-11-21T11:57:49;2.35;;;1.05;;
49061;SDS011;34873;49.142;9.118;2023-11-21T12:00:20;2.60;;;1.13;;
49061;SDS011;34873;49.142;9.118;2023-11-21T12:05:24;4.63;;;1.55;;
49061;SDS011;34873;49.142;9.118;2023-11-21T12:07:57;1.45;;;1.35;;
49061;SDS011;34873;49.142;9.118;2023-11-21T12:10:43;1.30;;;1.20;;
49061;SDS011;34873;49.142;9.118;2023-11-21T12:13:09;3.15;;;1.40;;
49061;SDS011;34873;49.142;9.118;2023-11-21T12:15:37;3.00;;;1.52;;
49061;SDS011;34873;49.142;9.118;2023-11-21T12:18:03;1.92;;;1.38;;
49061;SDS011;34873;49.142;9.118;2023-11-21T12:20:30;2.42;;;1.50;;
49061;SDS011;34873;49.142;9.118;2023-11-21T12:23:03;2.95;;;1.58;;
49061;SDS011;34873;49.142;9.118;2023-11-21T12:25:29;2.88;;;1.73;;
49061;SDS011;34873;49.142;9.118;2023-11-21T12:27:59;2.33;;;1.63;;
49061;SDS011;34873;49.142;9.118;2023-11-21T12:30:28;2.22;;;1.80;;
49061;SDS011;34873;49.142;9.118;2023-11-21T12:32:56;1.50;;;1.38;;
49061;SDS011;34873;49.142;9.118;2023-11-21T12:35:26;2.60;;;1.67;;
49061;SDS011;34873;49.142;9.118;2023-11-21T12:37:58;1.50;;;1.40;;
49061;SDS011;34873;49.142;9.118;2023-11-21T12:40:27;1.25;;;1.15;;
49061;SDS011;34873;49.142;9.118;2023-11-21T12:42:54;2.10;;;1.30;;
49061;SDS011;34873;49.142;9.118;2023-11-21T12:47:59;1.83;;;1.65;;
49061;SDS011;34873;49.142;9.118;2023-11-21T12:50:33;3.60;;;1.73;;
49061;SDS011;34873;49.142;9.118;2023-11-21T12:53:03;2.03;;;1.83;;
49061;SDS011;34873;49.142;9.118;2023-11-21T12:55:30;2.45;;;1.60;;
49061;SDS011;34873;49.142;9.118;2023-11-21T12:57:59;1.63;;;1.52;;
49061;SDS011;34873;49.142;9.118;2023-11-21T13:00:37;10.15;;;1.73;;
49061;SDS011;34873;49.142;9.118;2023-11-21T13:03:09;2.25;;;1.70;;
49061;SDS011;34873;49.142;9.118;2023-11-21T13:05:38;2.40;;;2.20;;
49061;SDS011;34873;49.142;9.118;2023-11-21T13:08:07;1.60;;;1.50;;
49061;SDS011;34873;49.142;9.118;2023-11-21T13:10:38;1.65;;;1.55;;
49061;SDS011;34873;49.142;9.118;2023-11-21T13:13:05;2.42;;;1.55;;
49061;SDS011;34873;49.142;9.118;2023-11-21T13:15:34;3.92;;;1.63;;
49061;SDS011;34873;49.142;9.118;2023-11-21T13:18:01;2.17;;;1.75;;
49061;SDS011;34873;49.142;9.118;2023-11-21T13:20:30;3.83;;;1.80;;
49061;SDS011;34873;49.142;9.118;2023-11-21T13:22:56;1.80;;;1.60;;
49061;SDS011;34873;49.142;9.118;2023-11-21T13:25:26;2.85;;;1.80;;
49061;SDS011;34873;49.142;9.118;2023-11-21T13:27:54;1.73;;;1.60;;
49061;SDS011;34873;49.142;9.118;2023-11-21T13:30:23;1.65;;;1.55;;
49061;SDS011;34873;49.142;9.118;2023-11-21T13:32:53;4.63;;;1.33;;
49061;SDS011;34873;49.142;9.118;2023-11-21T13:35:22;2.10;;;1.88;;
49061;SDS011;34873;49.142;9.118;2023-11-21T13:38:02;2.70;;;1.50;;
49061;SDS011;34873;49.142;9.118;2023-11-21T13:40:49;2.78;;;1.70;;
49061;SDS011;34873;49.142;9.118;2023-11-21T13:43:24;1.60;;;1.50;;
49061;SDS011;34873;49.142;9.118;2023-11-21T13:45:53;2.40;;;1.70;;
49061;SDS011;34873;49.142;9.118;2023-11-21T13:48:26;4.93;;;2.05;;
49061;SDS011;34873;49.142;9.118;2023-11-21T13:51:06;6.18;;;1.85;;
49061;SDS011;34873;49.142;9.118;2023-11-21T13:53:48;5.93;;;1.92;;
49061;SDS011;34873;49.142;9.118;2023-11-21T13:56:17;1.90;;;1.75;;
49061;SDS011;34873;49.142;9.118;2023-11-21T13:58:51;3.35;;;1.52;;
49061;SDS011;34873;49.142;9.118;2023-11-21T14:01:17;1.67;;;1.58;;
49061;SDS011;34873;49.142;9.118;2023-11-21T14:03:59;1.60;;;1.50;;
49061;SDS011;34873;49.142;9.118;2023-11-21T14:06:34;2.15;;;1.42;;
49061;SDS011;34873;49.142;9.118;2023-11-21T14:09:07;8.43;;;1.70;;
49061;SDS011;34873;49.142;9.118;2023-11-21T14:11:33;1.63;;;1.52;;
49061;SDS011;34873;49.142;9.118;2023-11-21T14:14:05;1.80;;;1.70;;
49061;SDS011;34873;49.142;9.118;2023-11-21T14:16:33;1.45;;;1.25;;
49061;SDS011;34873;49.142;9.118;2023-11-21T14:18:58;1.98;;;1.58;;
49061;SDS011;34873;49.142;9.118;2023-11-21T14:21:40;3.78;;;1.60;;
49061;SDS011;34873;49.142;9.118;2023-11-21T14:24:09;5.05;;;1.52;;
49061;SDS011;34873;49.142;9.118;2023-11-21T14:26:37;4.22;;;1.90;;
49061;SDS011;34873;49.142;9.118;2023-11-21T14:29:07;3.35;;;1.80;;
49061;SDS011;34873;49.142;9.118;2023-11-21T14:31:35;4.40;;;1.90;;
49061;SDS011;34873;49.142;9.118;2023-11-21T14:34:01;2.15;;;1.70;;
49061;SDS011;34873;49.142;9.118;2023-11-21T14:36:29;6.70;;;1.98;;
49061;SDS011;34873;49.142;9.118;2023-11-21T14:38:55;5.57;;;2.10;;
49061;SDS011;34873;49.142;9.118;2023-11-21T14:41:22;3.90;;;2.00;;
49061;SDS011;34873;49.142;9.118;2023-11-21T14:43:47;5.43;;;2.28;;
49061;SDS011;34873;49.142;9.118;2023-11-21T14:46:15;2.00;;;1.65;;
49061;SDS011;34873;49.142;9.118;2023-11-21T14:48:42;2.47;;;2.03;;
49061;SDS011;34873;49.142;9.118;2023-11-21T14:51:08;2.50;;;1.73;;
49061;SDS011;34873;49.142;9.118;2023-11-21T14:53:55;3.60;;;1.90;;
49061;SDS011;34873;49.142;9.118;2023-11-21T14:56:26;2.40;;;1.73;;
49061;SDS011;34873;49.142;9.118;2023-11-21T14:58:58;7.47;;;1.73;;
49061;SDS011;34873;49.142;9.118;2023-11-21T15:01:30;4.03;;;1.70;;
49061;SDS011;34873;49.142;9.118;2023-11-21T15:04:26;11.63;;;2.45;;
49061;SDS011;34873;49.142;9.118;2023-11-21T15:07:08;4.32;;;1.88;;
49061;SDS011;34873;49.142;9.118;2023-11-21T15:09:35;4.57;;;1.77;;
49061;SDS011;34873;49.142;9.118;2023-11-21T15:12:08;5.43;;;1.77;;